Time;durP1;ratioP1;P1;durP2;ratioP2;P2;SDS_P1;SDS_P2;PMS_P1;PMS_P2;Temp;Humidity;BMP_temperature;BMP_pressure;BME280_temperature;BME280_humidity;BME280_pressure;Samples;Min_cycle;Max_cycle;Signal;HPM_P1;HPM_P2
2022/10/24 00:01:33;;;;;;;;;;;;;;;;;;8415885;27;28120;-75
2022/10/24 00:05:33;;;;;;;;;;;;;;;;;;8417938;27;27372;-75
2022/10/24 00:09:33;;;;;;;;;;;;;;;;;;8426797;27;28179;-74
2022/10/24 00:13:34;;;;;;;;;;;;;;;;;;8432932;27;27203;-73
2022/10/24 00:17:34;;;;;;;;;;;;;;;;;;8424861;27;28105;-73
2022/10/24 00:21:34;;;;;;;;;;;;;;;;;;8421837;27;27730;-72
2022/10/24 00:25:34;;;;;;;;;;;;;;;;;;8422659;27;27599;-74
2022/10/24 00:29:34;;;;;;;;;;;;;;;;;;8419235;27;29629;-73
2022/10/24 00:33:34;;;;;;;;;;;;;;;;;;8417655;27;28151;-74
2022/10/24 00:37:34;;;;;;;;;;;;;;;;;;8420882;27;28438;-73
2022/10/24 00:41:35;;;;;;;;;;;;;;;;;;8415009;27;28518;-73
2022/10/24 00:45:35;;;;;;;;;;;;;;;;;;8422763;27;28640;-74
2022/10/24 00:49:35;;;;;;;;;;;;;;;;;;8420158;27;27293;-72
2022/10/24 00:53:35;;;;;;;;;;;;;;;;;;8423631;27;28083;-71
2022/10/24 00:57:35;;;;;;;;;;;;;;;;;;8430719;27;28257;-72
2022/10/24 01:01:35;;;;;;;;;;;;;;;;;;8425211;27;27794;-74
2022/10/24 01:05:36;;;;;;;;;;;;;;;;;;8420369;27;29195;-73
2022/10/24 01:09:36;;;;;;;;;;;;;;;;;;8412724;27;27349;-74
2022/10/24 01:13:36;;;;;;;;;;;;;;;;;;8416268;27;28257;-73
2022/10/24 01:17:36;;;;;;;;;;;;;;;;;;8421661;27;28168;-74
2022/10/24 01:21:36;;;;;;;;;;;;;;;;;;8424575;27;28147;-74
2022/10/24 01:25:37;;;;;;;;;;;;;;;;;;8425221;27;27392;-72
2022/10/24 01:29:37;;;;;;;;;;;;;;;;;;8423206;27;28489;-74
2022/10/24 01:33:37;;;;;;;;;;;;;;;;;;8430372;27;29361;-73
2022/10/24 01:37:38;;;;;;;;;;;;;;;;;;8423173;27;27728;-73
2022/10/24 01:41:38;;;;;;;;;;;;;;;;;;8431663;27;28121;-74
2022/10/24 01:45:38;;;;;;;;;;;;;;;;;;8418530;27;27828;-74
2022/10/24 01:49:39;;;;;;;;;;;;;;;;;;8427359;27;28165;-74
2022/10/24 01:53:39;;;;;;;;;;;;;;;;;;8424875;27;27217;-74
2022/10/24 01:57:39;;;;;;;;;;;;;;;;;;8425428;27;28174;-73
2022/10/24 02:01:39;;;;;;;;;;;;;;;;;;8426147;27;28196;-75
2022/10/24 02:05:39;;;;;;;;;;;;;;;;;;8427479;27;27351;-73
2022/10/24 02:09:39;;;;;;;;;;;;;;;;;;8428200;27;27415;-74
2022/10/24 02:13:41;;;;;;;;;;;;;;;;;;8421021;27;28431;-72
2022/10/24 02:17:41;;;;;;;;;;;;;;;;;;8420418;27;27342;-72
2022/10/24 02:21:41;;;;;;;;;;;;;;;;;;8429300;27;27777;-72
2022/10/24 02:25:41;;;;;;;;;;;;;;;;;;8424950;27;27269;-74
2022/10/24 02:29:41;;;;;;;;;;;;;;;;;;8427136;27;28372;-73
2022/10/24 02:33:41;;;;;;;;;;;;;;;;;;8425575;27;28683;-73
2022/10/24 02:37:41;;;;;;;;;;;;;;;;;;8431388;27;27414;-72
2022/10/24 02:41:41;;;;;;;;;;;;;;;;;;8430383;27;28534;-74
2022/10/24 02:45:42;;;;;;;;;;;;;;;;;;8421524;27;28499;-73
2022/10/24 02:49:42;;;;;;;;;;;;;;;;;;8422470;27;28007;-75
2022/10/24 02:53:42;;;;;;;;;;;;;;;;;;8426611;27;28485;-73
2022/10/24 02:57:42;;;;;;;;;;;;;;;;;;8425556;27;27518;-75
2022/10/24 03:01:42;;;;;;;;;;;;;;;;;;8422860;27;29716;-73
2022/10/24 03:05:42;;;;;;;;;;;;;;;;;;8431856;27;27850;-73
2022/10/24 03:09:42;;;;;;;;;;;;;;;;;;8426097;27;27947;-73
2022/10/24 03:13:43;;;;;;;;;;;;;;;;;;8434282;27;28418;-75
2022/10/24 03:17:43;;;;;;;;;;;;;;;;;;8424232;27;27510;-74
2022/10/24 03:21:43;;;;;;;;;;;;;;;;;;8423582;27;27658;-74
2022/10/24 03:25:43;;;;;;;;;;;;;;;;;;8428060;27;27577;-74
2022/10/24 03:29:43;;;;;;;;;;;;;;;;;;8426427;27;29254;-73
2022/10/24 03:33:43;;;;;;;;;;;;;;;;;;8424347;27;28124;-74
2022/10/24 03:37:43;;;;;;;;;;;;;;;;;;8423514;27;28280;-74
2022/10/24 03:41:44;;;;;;;;;;;;;;;;;;8425910;27;28127;-75
2022/10/24 03:45:44;;;;;;;;;;;;;;;;;;8420529;27;28682;-75
2022/10/24 03:49:44;;;;;;;;;;;;;;;;;;8418930;27;27577;-73
2022/10/24 03:53:44;;;;;;;;;;;;;;;;;;8421865;27;28508;-74
2022/10/24 03:57:44;;;;;;;;;;;;;;;;;;8415150;27;27630;-75
2022/10/24 04:01:44;;;;;;;;;;;;;;;;;;8417032;27;27209;-75
2022/10/24 04:05:44;;;;;;;;;;;;;;;;;;8427610;27;28359;-74
2022/10/24 04:09:45;;;;;;;;;;;;;;;;;;8421589;27;28074;-74
2022/10/24 04:13:45;;;;;;;;;;;;;;;;;;8418968;27;47117;-74
2022/10/24 04:17:45;;;;;;;;;;;;;;;;;;8421154;27;28444;-75
2022/10/24 04:21:46;;;;;;;;;;;;;;;;;;8417221;27;27330;-74
2022/10/24 04:25:46;;;;;;;;;;;;;;;;;;8420013;27;27497;-74
2022/10/24 04:29:47;;;;;;;;;;;;;;;;;;8420159;27;29057;-72
2022/10/24 04:33:47;;;;;;;;;;;;;;;;;;8418676;27;27163;-73
2022/10/24 04:37:47;;;;;;;;;;;;;;;;;;8413779;27;28588;-73
2022/10/24 04:41:47;;;;;;;;;;;;;;;;;;8419289;27;28483;-75
2022/10/24 04:45:47;;;;;;;;;;;;;;;;;;8416499;27;29192;-74
2022/10/24 04:49:47;;;;;;;;;;;;;;;;;;8421496;27;28554;-74
2022/10/24 04:53:47;;;;;;;;;;;;;;;;;;8420902;27;29344;-73
2022/10/24 04:57:48;;;;;;;;;;;;;;;;;;8419919;27;28350;-74
2022/10/24 05:01:48;;;;;;;;;;;;;;;;;;8424568;27;28161;-73
2022/10/24 05:05:48;;;;;;;;;;;;;;;;;;8419675;27;28035;-74
2022/10/24 05:09:48;;;;;;;;;;;;;;;;;;8429923;27;27396;-73
2022/10/24 05:13:48;;;;;;;;;;;;;;;;;;8421430;27;27673;-74
2022/10/24 05:17:48;;;;;;;;;;;;;;;;;;8417172;27;27432;-74
2022/10/24 05:21:48;;;;;;;;;;;;;;;;;;8424486;27;28556;-74
2022/10/24 05:25:49;;;;;;;;;;;;;;;;;;8414745;27;47289;-72
2022/10/24 05:29:49;;;;;;;;;;;;;;;;;;8414123;27;27442;-74
2022/10/24 05:33:49;;;;;;;;;;;;;;;;;;8425759;27;29128;-74
2022/10/24 05:37:49;;;;;;;;;;;;;;;;;;8414204;27;29473;-75
2022/10/24 05:41:49;;;;;;;;;;;;;;;;;;8423243;27;29188;-72
2022/10/24 05:45:49;;;;;;;;;;;;;;;;;;8411239;27;27940;-73
2022/10/24 05:49:49;;;;;;;;;;;;;;;;;;8413970;27;28378;-73
2022/10/24 05:53:49;;;;;;;;;;;;;;;;;;8422331;27;28281;-74
2022/10/24 05:57:50;;;;;;;;;;;;;;;;;;8424564;27;28528;-73
2022/10/24 06:01:50;;;;;;;;;;;;;;;;;;8420211;27;27844;-74
2022/10/24 06:05:50;;;;;;;;;;;;;;;;;;8417513;27;28484;-74
2022/10/24 06:09:50;;;;;;;;;;;;;;;;;;8419125;27;28615;-74
2022/10/24 06:13:50;;;;;;;;;;;;;;;;;;8428420;27;28254;-74
2022/10/24 06:17:50;;;;;;;;;;;;;;;;;;8423804;27;27992;-73
2022/10/24 06:21:50;;;;;;;;;;;;;;;;;;8421787;27;28646;-72
2022/10/24 06:25:51;;;;;;;;;;;;;;;;;;8428075;27;28133;-75
2022/10/24 06:29:51;;;;;;;;;;;;;;;;;;8427011;27;28696;-72
2022/10/24 06:33:53;;;;;;;;;;;;;;;;;;8423191;27;28275;-73
2022/10/24 06:37:53;;;;;;;;;;;;;;;;;;8433371;27;27311;-73
2022/10/24 06:41:53;;;;;;;;;;;;;;;;;;8421970;27;27615;-73
2022/10/24 06:45:54;;;;;;;;;;;;;;;;;;8418075;27;28583;-74
2022/10/24 06:49:54;;;;;;;;;;;;;;;;;;8420957;27;27293;-74
2022/10/24 06:53:54;;;;;;;;;;;;;;;;;;8417096;27;27871;-73
2022/10/24 06:57:54;;;;;;;;;;;;;;;;;;8421721;27;28866;-72
2022/10/24 07:01:54;;;;;;;;;;;;;;;;;;8420663;27;28401;-74
2022/10/24 07:05:55;;;;;;;;;;;;;;;;;;8421724;27;28988;-75
2022/10/24 07:09:55;;;;;;;;;;;;;;;;;;8422844;27;29362;-74
2022/10/24 07:13:55;;;;;;;;;;;;;;;;;;8420351;27;27436;-74
2022/10/24 07:17:55;;;;;;;;;;;;;;;;;;8421993;27;27192;-73
2022/10/24 07:21:55;;;;;;;;;;;;;;;;;;8417505;27;27607;-72
2022/10/24 07:25:55;;;;;;;;;;;;;;;;;;8419661;27;27593;-71
2022/10/24 07:29:56;;;;;;;;;;;;;;;;;;8421993;27;27274;-74
2022/10/24 07:33:56;;;;;;;;;;;;;;;;;;8420217;27;27764;-74
2022/10/24 07:37:56;;;;;;;;;;;;;;;;;;8424538;27;28222;-74
2022/10/24 07:41:56;;;;;;;;;;;;;;;;;;8423354;27;28187;-73
2022/10/24 07:45:56;;;;;;;;;;;;;;;;;;8417182;27;28063;-73
2022/10/24 07:49:56;;;;;;;;;;;;;;;;;;8427904;27;28571;-75
2022/10/24 07:53:57;;;;;;;;;;;;;;;;;;8418307;27;29305;-75
2022/10/24 07:57:57;;;;;;;;;;;;;;;;;;8423860;27;28462;-72
2022/10/24 08:01:57;;;;;;;;;;;;;;;;;;8422114;27;28147;-76
2022/10/24 08:05:57;;;;;;;;;;;;;;;;;;8418914;27;27882;-76
2022/10/24 08:09:57;;;;;;;;;;;;;;;;;;8422496;27;29202;-76
2022/10/24 08:13:57;;;;;;;;;;;;;;;;;;8420980;27;27897;-76
2022/10/24 08:17:58;;;;;;;;;;;;;;;;;;8423532;27;28309;-75
2022/10/24 08:21:58;;;;;;;;;;;;;;;;;;8419018;27;28122;-77
2022/10/24 08:25:58;;;;;;;;;;;;;;;;;;8428552;27;28473;-76
2022/10/24 08:29:58;;;;;;;;;;;;;;;;;;8422970;27;27272;-77
2022/10/24 08:33:58;;;;;;;;;;;;;;;;;;8418526;27;27691;-76
2022/10/24 08:38:00;;;;;;;;;;;;;;;;;;8424670;27;28352;-76
2022/10/24 08:42:00;;;;;;;;;;;;;;;;;;8422628;27;27294;-76
2022/10/24 08:46:00;;;;;;;;;;;;;;;;;;8423716;27;27354;-76
2022/10/24 08:50:00;;;;;;;;;;;;;;;;;;8431423;27;28582;-76
2022/10/24 08:54:01;;;;;;;;;;;;;;;;;;8422498;27;27565;-76
2022/10/24 08:58:01;;;;;;;;;;;;;;;;;;8424465;27;29083;-77
2022/10/24 09:02:01;;;;;;;;;;;;;;;;;;8419342;27;28328;-76
2022/10/24 09:06:01;;;;;;;;;;;;;;;;;;8423437;27;27641;-75
2022/10/24 09:10:01;;;;;;;;;;;;;;;;;;8417973;27;28017;-75
2022/10/24 09:14:01;;;;;;;;;;;;;;;;;;8419492;27;27342;-75
2022/10/24 09:18:02;;;;;;;;;;;;;;;;;;8424860;27;28621;-76
2022/10/24 09:22:02;;;;;;;;;;;;;;;;;;8426206;27;27232;-76
2022/10/24 09:26:02;;;;;;;;;;;;;;;;;;8419902;27;28391;-76
2022/10/24 09:30:02;;;;;;;;;;;;;;;;;;8424696;27;28492;-76
2022/10/24 09:34:03;;;;;;;;;;;;;;;;;;8419737;27;28816;-76
2022/10/24 09:38:03;;;;;;;;;;;;;;;;;;8422080;27;28674;-76
2022/10/24 09:42:03;;;;;;;;;;;;;;;;;;8416890;27;28616;-76
2022/10/24 09:46:03;;;;;;;;;;;;;;;;;;8424998;27;29411;-76
2022/10/24 09:50:03;;;;;;;;;;;;;;;;;;8424905;27;27643;-77
2022/10/24 09:54:04;;;;;;;;;;;;;;;;;;8424158;27;28506;-76
2022/10/24 09:58:04;;;;;;;;;;;;;;;;;;8429189;27;27273;-77
2022/10/24 10:02:04;;;;;;;;;;;;;;;;;;8426758;27;28739;-76
2022/10/24 10:06:05;;;;;;;;;;;;;;;;;;8429655;27;28719;-76
2022/10/24 10:10:05;;;;;;;;;;;;;;;;;;8430215;27;28553;-76
2022/10/24 10:14:05;;;;;;;;;;;;;;;;;;8431942;27;28639;-77
2022/10/24 10:18:05;;;;;;;;;;;;;;;;;;8431008;27;28192;-75
2022/10/24 10:22:05;;;;;;;;;;;;;;;;;;8427428;27;28577;-76
2022/10/24 10:26:05;;;;;;;;;;;;;;;;;;8422910;27;28574;-76
2022/10/24 10:30:06;;;;;;;;;;;;;;;;;;8420762;27;27479;-77
2022/10/24 10:34:06;;;;;;;;;;;;;;;;;;8423140;27;27570;-77
2022/10/24 10:38:06;;;;;;;;;;;;;;;;;;8428488;27;28967;-76
2022/10/24 10:42:08;;;;;;;;;;;;;;;;;;8425155;27;27521;-76
2022/10/24 10:46:10;;;;;;;;;;;;;;;;;;8424343;27;28423;-76
2022/10/24 10:50:11;;;;;;;;;;;;;;;;;;8422777;27;27368;-76
2022/10/24 10:54:11;;;;;;;;;;;;;;;;;;8420451;27;28238;-76
2022/10/24 10:58:11;;;;;;;;;;;;;;;;;;8421754;27;27513;-77
2022/10/24 11:02:11;;;;;;;;;;;;;;;;;;8426357;27;28482;-76
2022/10/24 11:06:11;;;;;;;;;;;;;;;;;;8422078;27;28151;-76
2022/10/24 11:10:11;;;;;;;;;;;;;;;;;;8421550;27;27399;-76
2022/10/24 11:14:11;;;;;;;;;;;;;;;;;;8423758;27;27352;-77
2022/10/24 11:18:11;;;;;;;;;;;;;;;;;;8428819;27;28564;-77
2022/10/24 11:22:12;;;;;;;;;;;;;;;;;;8423750;27;27274;-75
2022/10/24 11:26:12;;;;;;;;;;;;;;;;;;8425918;27;28422;-77
2022/10/24 11:30:12;;;;;;;;;;;;;;;;;;8421596;27;29267;-74
2022/10/24 11:34:12;;;;;;;;;;;;;;;;;;8422061;27;28418;-75
2022/10/24 11:38:12;;;;;;;;;;;;;;;;;;8428365;27;27562;-76
2022/10/24 11:42:12;;;;;;;;;;;;;;;;;;8418009;27;28989;-75
2022/10/24 11:46:13;;;;;;;;;;;;;;;;;;8428074;27;28166;-75
2022/10/24 11:50:13;;;;;;;;;;;;;;;;;;8427278;27;28666;-77
2022/10/24 11:54:13;;;;;;;;;;;;;;;;;;8422890;27;28304;-77
2022/10/24 11:58:13;;;;;;;;;;;;;;;;;;8424015;27;28676;-77
2022/10/24 12:02:13;;;;;;;;;;;;;;;;;;8421438;27;28438;-77
2022/10/24 12:06:13;;;;;;;;;;;;;;;;;;8424118;27;28242;-77
2022/10/24 12:10:13;;;;;;;;;;;;;;;;;;8424371;27;28197;-77
2022/10/24 12:14:15;;;;;;;;;;;;;;;;;;8419402;27;28557;-77
2022/10/24 12:18:19;;;;;;;;;;;;;;;;;;8415685;27;28715;-75
2022/10/24 12:22:24;;;;;;;;;;;;;;;;;;8418552;27;27252;-75
2022/10/24 12:26:24;;;;;;;;;;;;;;;;;;8422753;27;27713;-77
2022/10/24 12:30:25;;;;;;;;;;;;;;;;;;8431762;27;29454;-75
2022/10/24 12:34:26;;;;;;;;;;;;;;;;;;8420104;27;27224;-76
2022/10/24 12:38:28;;;;;;;;;;;;;;;;;;8424195;27;48878;-76
2022/10/24 12:42:28;;;;;;;;;;;;;;;;;;8422101;27;28178;-76
2022/10/24 12:46:28;;;;;;;;;;;;;;;;;;8428839;27;28528;-77
2022/10/24 12:50:28;;;;;;;;;;;;;;;;;;8418914;27;27236;-76
2022/10/24 12:54:29;;;;;;;;;;;;;;;;;;8426770;27;28816;-76
2022/10/24 12:58:29;;;;;;;;;;;;;;;;;;8416644;27;27374;-73
2022/10/24 13:02:29;;;;;;;;;;;;;;;;;;8423595;27;28189;-76
2022/10/24 13:06:29;;;;;;;;;;;;;;;;;;8423063;27;27600;-76
2022/10/24 13:10:29;;;;;;;;;;;;;;;;;;8416293;27;28402;-75
2022/10/24 13:14:29;;;;;;;;;;;;;;;;;;8420437;27;27374;-77
2022/10/24 13:18:29;;;;;;;;;;;;;;;;;;8420796;27;27417;-77
2022/10/24 13:22:29;;;;;;;;;;;;;;;;;;8417270;27;28284;-76
2022/10/24 13:26:30;;;;;;;;;;;;;;;;;;8426837;27;28543;-77
2022/10/24 13:30:30;;;;;;;;;;;;;;;;;;8422275;27;28135;-76
2022/10/24 13:34:30;;;;;;;;;;;;;;;;;;8422854;27;28186;-77
2022/10/24 13:38:30;;;;;;;;;;;;;;;;;;8424494;27;27806;-78
2022/10/24 13:42:31;;;;;;;;;;;;;;;;;;8425284;27;28326;-77
2022/10/24 13:46:31;;;;;;;;;;;;;;;;;;8423186;27;27220;-76
2022/10/24 13:50:31;;;;;;;;;;;;;;;;;;8424687;27;27739;-76
2022/10/24 13:54:31;;;;;;;;;;;;;;;;;;8429650;27;29305;-76
2022/10/24 13:58:31;;;;;;;;;;;;;;;;;;8430771;27;27845;-77
2022/10/24 14:02:31;;;;;;;;;;;;;;;;;;8425461;27;29362;-75
2022/10/24 14:06:32;;;;;;;;;;;;;;;;;;8428122;27;27392;-76
2022/10/24 14:10:32;;;;;;;;;;;;;;;;;;8423904;27;27399;-77
2022/10/24 14:14:32;;;;;;;;;;;;;;;;;;8427270;27;28299;-75
2022/10/24 14:18:32;;;;;;;;;;;;;;;;;;8432756;27;27490;-76
2022/10/24 14:22:32;;;;;;;;;;;;;;;;;;8430139;27;28472;-75
2022/10/24 14:26:32;;;;;;;;;;;;;;;;;;8428596;27;28233;-76
2022/10/24 14:30:33;;;;;;;;;;;;;;;;;;8432502;27;28881;-76
2022/10/24 14:34:33;;;;;;;;;;;;;;;;;;8421115;27;27347;-75
2022/10/24 14:38:33;;;;;;;;;;;;;;;;;;8426196;27;28518;-76
2022/10/24 14:42:33;;;;;;;;;;;;;;;;;;8421739;27;28185;-76
2022/10/24 14:46:33;;;;;;;;;;;;;;;;;;8418650;27;29012;-76
2022/10/24 14:50:33;;;;;;;;;;;;;;;;;;8421668;27;28640;-76
2022/10/24 14:54:33;;;;;;;;;;;;;;;;;;8420596;27;27493;-76
2022/10/24 14:58:34;;;;;;;;;;;;;;;;;;8418313;27;29295;-76
2022/10/24 15:02:34;;;;;;;;;;;;;;;;;;8420098;27;27729;-77
2022/10/24 15:06:34;;;;;;;;;;;;;;;;;;8422804;27;28251;-77
2022/10/24 15:10:34;;;;;;;;;;;;;;;;;;8421034;27;29180;-76
2022/10/24 15:14:34;;;;;;;;;;;;;;;;;;8421829;27;29329;-76
2022/10/24 15:18:36;;;;;;;;;;;;;;;;;;8417044;27;29049;-75
2022/10/24 15:22:37;;;;;;;;;;;;;;;;;;8419979;27;28239;-75
2022/10/24 15:26:43;;;;;;;;;;;;;;;;;;8420673;27;28393;-77
2022/10/24 15:30:43;;;;;;;;;;;;;;;;;;8418742;27;29114;-76
2022/10/24 15:34:43;;;;;;;;;;;;;;;;;;8421142;27;28049;-77
2022/10/24 15:38:43;;;;;;;;;;;;;;;;;;8421001;27;29431;-76
2022/10/24 15:42:43;;;;;;;;;;;;;;;;;;8419013;27;28319;-76
2022/10/24 15:46:44;;;;;;;;;;;;;;;;;;8419798;27;28853;-76
2022/10/24 15:50:44;;;;;;;;;;;;;;;;;;8417158;27;27618;-75
2022/10/24 15:54:44;;;;;;;;;;;;;;;;;;8417874;27;29786;-76
2022/10/24 15:58:44;;;;;;;;;;;;;;;;;;8418227;27;28293;-76
2022/10/24 16:02:44;;;;;;;;;;;;;;;;;;8418003;27;27149;-76
2022/10/24 16:06:45;;;;;;;;;;;;;;;;;;8415390;27;28454;-76
2022/10/24 16:10:45;;;;;;;;;;;;;;;;;;8414089;27;27897;-76
2022/10/24 16:14:45;;;;;;;;;;;;;;;;;;8419790;27;28031;-77
2022/10/24 16:18:45;;;;;;;;;;;;;;;;;;8423621;27;28201;-76
2022/10/24 16:22:45;;;;;;;;;;;;;;;;;;8427505;27;28023;-75
2022/10/24 16:26:45;;;;;;;;;;;;;;;;;;8423671;27;28033;-76
2022/10/24 16:30:46;;;;;;;;;;;;;;;;;;8419321;27;28134;-76
2022/10/24 16:34:48;;;;;;;;;;;;;;;;;;8418324;27;27563;-76
2022/10/24 16:38:48;;;;;;;;;;;;;;;;;;8419425;27;28552;-76
2022/10/24 16:42:48;;;;;;;;;;;;;;;;;;8423927;27;28143;-76
2022/10/24 16:46:49;;;;;;;;;;;;;;;;;;8425650;27;28906;-75
2022/10/24 16:50:49;;;;;;;;;;;;;;;;;;8421591;27;28017;-76
2022/10/24 16:54:49;;;;;;;;;;;;;;;;;;8419662;27;28533;-75
2022/10/24 16:58:49;;;;;;;;;;;;;;;;;;8421019;27;27610;-77
2022/10/24 17:02:50;;;;;;;;;;;;;;;;;;8418594;27;27656;-77
2022/10/24 17:06:50;;;;;;;;;;;;;;;;;;8425846;27;28098;-76
2022/10/24 17:10:50;;;;;;;;;;;;;;;;;;8415925;27;28751;-77
2022/10/24 17:14:50;;;;;;;;;;;;;;;;;;8418098;27;27704;-76
2022/10/24 17:18:50;;;;;;;;;;;;;;;;;;8414692;27;27170;-76
2022/10/24 17:22:50;;;;;;;;;;;;;;;;;;8416721;27;27482;-75
2022/10/24 17:26:50;;;;;;;;;;;;;;;;;;8420163;27;28163;-77
2022/10/24 17:30:51;;;;;;;;;;;;;;;;;;8423830;27;29478;-76
2022/10/24 17:34:52;;;;;;;;;;;;;;;;;;8424289;27;29255;-76
2022/10/24 17:38:52;;;;;;;;;;;;;;;;;;8420756;27;27177;-76
2022/10/24 17:42:52;;;;;;;;;;;;;;;;;;8419303;27;27504;-76
2022/10/24 17:46:52;;;;;;;;;;;;;;;;;;8418361;27;28898;-76
2022/10/24 17:50:53;;;;;;;;;;;;;;;;;;8412360;27;28847;-76
2022/10/24 17:54:53;;;;;;;;;;;;;;;;;;8414145;27;27862;-75
2022/10/24 17:58:53;;;;;;;;;;;;;;;;;;8421236;27;28598;-75
2022/10/24 18:02:53;;;;;;;;;;;;;;;;;;8422026;27;29118;-74
2022/10/24 18:06:53;;;;;;;;;;;;;;;;;;8423575;27;27407;-75
2022/10/24 18:10:53;;;;;;;;;;;;;;;;;;8423532;27;28276;-75
2022/10/24 18:14:55;;;;;;;;;;;;;;;;;;8425150;27;28526;-76
2022/10/24 18:18:55;;;;;;;;;;;;;;;;;;8420106;27;27505;-76
2022/10/24 18:22:56;;;;;;;;;;;;;;;;;;8422025;27;27674;-76
2022/10/24 18:26:56;;;;;;;;;;;;;;;;;;8422693;27;29398;-75
2022/10/24 18:30:56;;;;;;;;;;;;;;;;;;8421614;27;28633;-76
2022/10/24 18:34:56;;;;;;;;;;;;;;;;;;8427227;27;28477;-75
2022/10/24 18:38:56;;;;;;;;;;;;;;;;;;8418378;27;27278;-76
2022/10/24 18:42:57;;;;;;;;;;;;;;;;;;8422440;27;28642;-77
2022/10/24 18:46:57;;;;;;;;;;;;;;;;;;8423358;27;27404;-75
2022/10/24 18:50:57;;;;;;;;;;;;;;;;;;8421679;27;27187;-75
2022/10/24 18:54:57;;;;;;;;;;;;;;;;;;8428284;27;27813;-76
2022/10/24 18:58:58;;;;;;;;;;;;;;;;;;8422544;27;28319;-76
2022/10/24 19:02:58;;;;;;;;;;;;;;;;;;8420856;27;29557;-76
2022/10/24 19:06:58;;;;;;;;;;;;;;;;;;8416662;27;28586;-75
2022/10/24 19:10:58;;;;;;;;;;;;;;;;;;8422328;27;28658;-75
2022/10/24 19:14:59;;;;;;;;;;;;;;;;;;8419454;27;28380;-75
2022/10/24 19:18:59;;;;;;;;;;;;;;;;;;8419709;27;27254;-75
2022/10/24 19:23:03;;;;;;;;;;;;;;;;;;8423346;27;27495;-77
2022/10/24 19:27:03;;;;;;;;;;;;;;;;;;8417617;27;28718;-77
2022/10/24 19:31:04;;;;;;;;;;;;;;;;;;8425811;27;27394;-75
2022/10/24 19:35:04;;;;;;;;;;;;;;;;;;8423714;27;28729;-76
2022/10/24 19:39:04;;;;;;;;;;;;;;;;;;8434864;27;27208;-76
2022/10/24 19:43:04;;;;;;;;;;;;;;;;;;8440118;27;28771;-76
2022/10/24 19:47:04;;;;;;;;;;;;;;;;;;8435836;27;28278;-75
2022/10/24 19:51:04;;;;;;;;;;;;;;;;;;8436136;27;28254;-75
2022/10/24 19:55:04;;;;;;;;;;;;;;;;;;8444246;27;28504;-76
2022/10/24 19:59:05;;;;;;;;;;;;;;;;;;8443766;27;28079;-76
2022/10/24 20:03:05;;;;;;;;;;;;;;;;;;8439363;27;27468;-76
2022/10/24 20:07:05;;;;;;;;;;;;;;;;;;8427272;27;27475;-76
2022/10/24 20:11:05;;;;;;;;;;;;;;;;;;8418918;27;27539;-76
2022/10/24 20:15:05;;;;;;;;;;;;;;;;;;8419206;27;27544;-76
2022/10/24 20:19:06;;;;;;;;;;;;;;;;;;8421974;27;27465;-76
2022/10/24 20:23:06;;;;;;;;;;;;;;;;;;8422737;27;28211;-77
2022/10/24 20:27:06;;;;;;;;;;;;;;;;;;8423838;27;28159;-76
2022/10/24 20:31:06;;;;;;;;;;;;;;;;;;8422714;27;27636;-76
2022/10/24 20:35:06;;;;;;;;;;;;;;;;;;8415461;27;27176;-78
2022/10/24 20:39:06;;;;;;;;;;;;;;;;;;8419697;27;28040;-76
2022/10/24 20:43:08;;;;;;;;;;;;;;;;;;8415634;27;27920;-76
2022/10/24 20:47:08;;;;;;;;;;;;;;;;;;8420180;27;27229;-76
2022/10/24 20:51:08;;;;;;;;;;;;;;;;;;8418582;27;28631;-77
2022/10/24 20:55:08;;;;;;;;;;;;;;;;;;8433826;27;29359;-76
2022/10/24 20:59:08;;;;;;;;;;;;;;;;;;8420076;27;29605;-74
2022/10/24 21:03:10;;;;;;;;;;;;;;;;;;8415639;27;27558;-74
2022/10/24 21:07:11;;;;;;;;;;;;;;;;;;8419328;27;28325;-74
2022/10/24 21:11:11;;;;;;;;;;;;;;;;;;8420043;27;28046;-76
2022/10/24 21:15:11;;;;;;;;;;;;;;;;;;8418004;27;27805;-76
2022/10/24 21:19:11;;;;;;;;;;;;;;;;;;8416736;27;27201;-76
2022/10/24 21:23:11;;;;;;;;;;;;;;;;;;8419618;27;28114;-76
2022/10/24 21:27:11;;;;;;;;;;;;;;;;;;8420636;27;27446;-76
2022/10/24 21:31:11;;;;;;;;;;;;;;;;;;8418943;27;28291;-75
2022/10/24 21:35:12;;;;;;;;;;;;;;;;;;8414962;27;28242;-76
2022/10/24 21:39:12;;;;;;;;;;;;;;;;;;8417295;27;27286;-77
2022/10/24 21:43:12;;;;;;;;;;;;;;;;;;8431549;27;27309;-76
2022/10/24 21:47:12;;;;;;;;;;;;;;;;;;8431995;27;27689;-76
2022/10/24 21:51:12;;;;;;;;;;;;;;;;;;8426824;27;27467;-76
2022/10/24 21:55:12;;;;;;;;;;;;;;;;;;8426338;27;28824;-76
2022/10/24 21:59:12;;;;;;;;;;;;;;;;;;8428322;27;28479;-75
2022/10/24 22:03:13;;;;;;;;;;;;;;;;;;8420719;27;28667;-76
2022/10/24 22:07:13;;;;;;;;;;;;;;;;;;8421123;27;28289;-75
2022/10/24 22:11:13;;;;;;;;;;;;;;;;;;8419374;27;28024;-75
2022/10/24 22:15:13;;;;;;;;;;;;;;;;;;8427613;27;28023;-76
2022/10/24 22:19:13;;;;;;;;;;;;;;;;;;8422702;27;27377;-75
2022/10/24 22:23:13;;;;;;;;;;;;;;;;;;8430261;27;28278;-76
2022/10/24 22:27:14;;;;;;;;;;;;;;;;;;8427385;27;29172;-76
2022/10/24 22:31:14;;;;;;;;;;;;;;;;;;8426430;27;28648;-76
2022/10/24 22:35:15;;;;;;;;;;;;;;;;;;8426585;27;28153;-76
2022/10/24 22:39:15;;;;;;;;;;;;;;;;;;8423274;27;28003;-76
2022/10/24 22:43:15;;;;;;;;;;;;;;;;;;8427780;27;28507;-77
2022/10/24 22:47:15;;;;;;;;;;;;;;;;;;8419534;27;28217;-77
2022/10/24 22:51:16;;;;;;;;;;;;;;;;;;8426551;27;29470;-76
2022/10/24 22:55:16;;;;;;;;;;;;;;;;;;8425179;27;28139;-76
2022/10/24 22:59:16;;;;;;;;;;;;;;;;;;8422563;27;27739;-76
2022/10/24 23:03:16;;;;;;;;;;;;;;;;;;8419565;27;28321;-76
2022/10/24 23:07:16;;;;;;;;;;;;;;;;;;8418267;27;28395;-76
2022/10/24 23:11:16;;;;;;;;;;;;;;;;;;8424861;27;28589;-76
2022/10/24 23:15:17;;;;;;;;;;;;;;;;;;8424109;27;29333;-76
2022/10/24 23:19:17;;;;;;;;;;;;;;;;;;8421924;27;27481;-75
2022/10/24 23:23:17;;;;;;;;;;;;;;;;;;8421291;27;28219;-76
2022/10/24 23:27:17;;;;;;;;;;;;;;;;;;8422161;27;28248;-76
2022/10/24 23:31:18;;;;;;;;;;;;;;;;;;8432233;27;28614;-75
2022/10/24 23:35:18;;;;;;;;;;;;;;;;;;8422592;27;27178;-76
2022/10/24 23:39:18;;;;;;;;;;;;;;;;;;8417604;27;27302;-77
2022/10/24 23:43:18;;;;;;;;;;;;;;;;;;8418441;27;29403;-76
2022/10/24 23:47:18;;;;;;;;;;;;;;;;;;8422749;27;29192;-76
2022/10/24 23:51:19;;;;;;;;;;;;;;;;;;8423852;27;28424;-76
2022/10/24 23:55:19;;;;;;;;;;;;;;;;;;8428029;27;29697;-77
2022/10/24 23:59:19;;;;;;;;;;;;;;;;;;8421156;27;28370;-76
